sensor_id;sensor_type;location;lat;lon;timestamp;temperature;humidity
75824;DHT22;64457;51.976;9.834;2023-08-07T00:00:45;18.90;99.90
75824;DHT22;64457;51.976;9.834;2023-08-07T00:03:13;19.00;99.90
75824;DHT22;64457;51.976;9.834;2023-08-07T00:05:46;19.20;99.90
75824;DHT22;64457;51.976;9.834;2023-08-07T00:08:14;19.10;99.90
75824;DHT22;64457;51.976;9.834;2023-08-07T00:10:42;19.10;99.90
75824;DHT22;64457;51.976;9.834;2023-08-07T00:13:09;19.10;99.90
75824;DHT22;64457;51.976;9.834;2023-08-07T00:15:38;19.00;99.90
75824;DHT22;64457;51.976;9.834;2023-08-07T00:18:05;19.10;99.90
75824;DHT22;64457;51.976;9.834;2023-08-07T00:20:33;19.10;99.90
75824;DHT22;64457;51.976;9.834;2023-08-07T00:23:02;19.10;99.90
75824;DHT22;64457;51.976;9.834;2023-08-07T00:25:30;19.10;99.90
75824;DHT22;64457;51.976;9.834;2023-08-07T00:28:00;19.10;99.90
75824;DHT22;64457;51.976;9.834;2023-08-07T00:30:27;19.20;99.90
75824;DHT22;64457;51.976;9.834;2023-08-07T00:32:55;19.10;99.90
75824;DHT22;64457;51.976;9.834;2023-08-07T00:35:22;18.80;99.90
75824;DHT22;64457;51.976;9.834;2023-08-07T00:37:50;18.80;99.90
75824;DHT22;64457;51.976;9.834;2023-08-07T00:40:19;18.70;99.90
75824;DHT22;64457;51.976;9.834;2023-08-07T00:42:47;18.80;99.90
75824;DHT22;64457;51.976;9.834;2023-08-07T00:45:14;18.90;99.90
75824;DHT22;64457;51.976;9.834;2023-08-07T00:47:44;18.90;99.90
75824;DHT22;64457;51.976;9.834;2023-08-07T00:50:12;18.90;99.90
75824;DHT22;64457;51.976;9.834;2023-08-07T00:52:41;18.90;99.90
75824;DHT22;64457;51.976;9.834;2023-08-07T00:55:09;18.90;99.90
75824;DHT22;64457;51.976;9.834;2023-08-07T00:57:38;19.00;99.90
75824;DHT22;64457;51.976;9.834;2023-08-07T01:00:07;18.80;99.90
75824;DHT22;64457;51.976;9.834;2023-08-07T01:02:36;18.70;99.90
75824;DHT22;64457;51.976;9.834;2023-08-07T01:05:04;18.80;99.90
75824;DHT22;64457;51.976;9.834;2023-08-07T01:07:32;19.00;99.90
75824;DHT22;64457;51.976;9.834;2023-08-07T01:09:59;19.10;99.90
75824;DHT22;64457;51.976;9.834;2023-08-07T01:12:30;19.00;99.90
75824;DHT22;64457;51.976;9.834;2023-08-07T01:15:09;19.00;99.90
75824;DHT22;64457;51.976;9.834;2023-08-07T01:17:42;18.70;99.90
75824;DHT22;64457;51.976;9.834;2023-08-07T01:20:12;18.70;99.90
75824;DHT22;64457;51.976;9.834;2023-08-07T01:22:41;18.80;99.90
75824;DHT22;64457;51.976;9.834;2023-08-07T01:25:09;18.90;99.90
75824;DHT22;64457;51.976;9.834;2023-08-07T01:27:39;18.90;99.90
75824;DHT22;64457;51.976;9.834;2023-08-07T01:30:16;18.90;99.90
75824;DHT22;64457;51.976;9.834;2023-08-07T01:32:56;18.70;99.90
75824;DHT22;64457;51.976;9.834;2023-08-07T01:35:33;18.50;99.90
75824;DHT22;64457;51.976;9.834;2023-08-07T01:38:05;18.40;99.90
75824;DHT22;64457;51.976;9.834;2023-08-07T01:40:33;18.30;99.90
75824;DHT22;64457;51.976;9.834;2023-08-07T01:43:01;18.30;99.90
75824;DHT22;64457;51.976;9.834;2023-08-07T01:45:30;18.30;99.90
75824;DHT22;64457;51.976;9.834;2023-08-07T01:47:58;18.30;99.90
75824;DHT22;64457;51.976;9.834;2023-08-07T01:50:26;18.30;99.90
75824;DHT22;64457;51.976;9.834;2023-08-07T01:52:54;18.40;99.90
75824;DHT22;64457;51.976;9.834;2023-08-07T01:55:24;18.20;99.90
75824;DHT22;64457;51.976;9.834;2023-08-07T01:57:52;18.20;99.90
75824;DHT22;64457;51.976;9.834;2023-08-07T02:00:20;18.20;99.90
75824;DHT22;64457;51.976;9.834;2023-08-07T02:02:48;18.10;99.90
75824;DHT22;64457;51.976;9.834;2023-08-07T02:05:15;18.30;99.90
75824;DHT22;64457;51.976;9.834;2023-08-07T02:07:44;18.30;99.90
75824;DHT22;64457;51.976;9.834;2023-08-07T02:10:12;18.30;99.90
75824;DHT22;64457;51.976;9.834;2023-08-07T02:12:41;18.40;99.90
75824;DHT22;64457;51.976;9.834;2023-08-07T02:15:09;18.40;99.90
75824;DHT22;64457;51.976;9.834;2023-08-07T02:17:37;18.20;99.90
75824;DHT22;64457;51.976;9.834;2023-08-07T02:20:07;18.30;99.90
75824;DHT22;64457;51.976;9.834;2023-08-07T02:22:36;18.30;99.90
75824;DHT22;64457;51.976;9.834;2023-08-07T02:25:04;18.30;99.90
75824;DHT22;64457;51.976;9.834;2023-08-07T02:27:34;18.40;99.90
75824;DHT22;64457;51.976;9.834;2023-08-07T02:30:02;18.50;99.90
75824;DHT22;64457;51.976;9.834;2023-08-07T02:32:35;18.50;99.90
75824;DHT22;64457;51.976;9.834;2023-08-07T02:35:04;18.40;99.90
75824;DHT22;64457;51.976;9.834;2023-08-07T02:37:33;18.30;99.90
75824;DHT22;64457;51.976;9.834;2023-08-07T02:40:00;18.20;99.90
75824;DHT22;64457;51.976;9.834;2023-08-07T02:42:28;18.20;99.90
75824;DHT22;64457;51.976;9.834;2023-08-07T02:44:55;18.40;99.90
75824;DHT22;64457;51.976;9.834;2023-08-07T02:47:24;18.40;99.90
75824;DHT22;64457;51.976;9.834;2023-08-07T02:49:52;18.50;99.90
75824;DHT22;64457;51.976;9.834;2023-08-07T02:52:19;18.60;99.90
75824;DHT22;64457;51.976;9.834;2023-08-07T02:54:50;18.40;99.90
75824;DHT22;64457;51.976;9.834;2023-08-07T02:57:18;18.30;99.90
75824;DHT22;64457;51.976;9.834;2023-08-07T02:59:46;18.20;99.90
75824;DHT22;64457;51.976;9.834;2023-08-07T03:02:13;18.20;99.90
75824;DHT22;64457;51.976;9.834;2023-08-07T03:04:42;18.10;99.90
75824;DHT22;64457;51.976;9.834;2023-08-07T03:07:10;18.00;99.90
75824;DHT22;64457;51.976;9.834;2023-08-07T03:09:38;17.90;99.90
75824;DHT22;64457;51.976;9.834;2023-08-07T03:12:07;17.70;99.90
75824;DHT22;64457;51.976;9.834;2023-08-07T03:14:35;17.70;99.90
75824;DHT22;64457;51.976;9.834;2023-08-07T03:17:04;17.70;99.90
75824;DHT22;64457;51.976;9.834;2023-08-07T03:19:34;17.60;99.90
75824;DHT22;64457;51.976;9.834;2023-08-07T03:22:04;17.50;99.90
75824;DHT22;64457;51.976;9.834;2023-08-07T03:24:32;17.40;99.90
75824;DHT22;64457;51.976;9.834;2023-08-07T03:27:00;17.70;99.90
75824;DHT22;64457;51.976;9.834;2023-08-07T03:29:28;17.90;99.90
75824;DHT22;64457;51.976;9.834;2023-08-07T03:31:55;17.90;99.90
75824;DHT22;64457;51.976;9.834;2023-08-07T03:34:23;17.90;99.90
75824;DHT22;64457;51.976;9.834;2023-08-07T03:36:51;17.80;99.90
75824;DHT22;64457;51.976;9.834;2023-08-07T03:39:19;17.70;99.90
75824;DHT22;64457;51.976;9.834;2023-08-07T03:41:47;17.80;99.90
75824;DHT22;64457;51.976;9.834;2023-08-07T03:44:15;17.80;99.90
75824;DHT22;64457;51.976;9.834;2023-08-07T03:46:43;17.70;99.90
75824;DHT22;64457;51.976;9.834;2023-08-07T03:49:10;17.70;99.90
75824;DHT22;64457;51.976;9.834;2023-08-07T03:51:38;17.50;99.90
75824;DHT22;64457;51.976;9.834;2023-08-07T03:54:07;17.60;99.90
75824;DHT22;64457;51.976;9.834;2023-08-07T03:56:36;17.70;99.90
75824;DHT22;64457;51.976;9.834;2023-08-07T03:59:04;17.90;99.90
75824;DHT22;64457;51.976;9.834;2023-08-07T04:01:32;17.70;99.90
75824;DHT22;64457;51.976;9.834;2023-08-07T04:04:00;17.60;99.90
75824;DHT22;64457;51.976;9.834;2023-08-07T04:06:27;17.50;99.90
75824;DHT22;64457;51.976;9.834;2023-08-07T04:08:55;17.20;99.90
75824;DHT22;64457;51.976;9.834;2023-08-07T04:11:22;17.50;99.90
75824;DHT22;64457;51.976;9.834;2023-08-07T04:13:53;17.40;99.90
75824;DHT22;64457;51.976;9.834;2023-08-07T04:16:23;17.40;99.90
75824;DHT22;64457;51.976;9.834;2023-08-07T04:18:52;17.40;99.90
75824;DHT22;64457;51.976;9.834;2023-08-07T04:21:20;17.20;99.90
75824;DHT22;64457;51.976;9.834;2023-08-07T04:23:48;17.30;99.90
75824;DHT22;64457;51.976;9.834;2023-08-07T04:26:20;16.90;99.90
75824;DHT22;64457;51.976;9.834;2023-08-07T04:28:52;17.10;99.90
75824;DHT22;64457;51.976;9.834;2023-08-07T04:31:19;17.50;99.90
75824;DHT22;64457;51.976;9.834;2023-08-07T04:33:48;17.60;99.90
75824;DHT22;64457;51.976;9.834;2023-08-07T04:36:16;17.90;99.90
75824;DHT22;64457;51.976;9.834;2023-08-07T04:38:44;18.10;99.90
75824;DHT22;64457;51.976;9.834;2023-08-07T04:41:12;18.00;99.90
75824;DHT22;64457;51.976;9.834;2023-08-07T04:43:40;18.10;99.90
75824;DHT22;64457;51.976;9.834;2023-08-07T04:46:10;18.30;99.90
75824;DHT22;64457;51.976;9.834;2023-08-07T04:48:40;18.10;99.90
75824;DHT22;64457;51.976;9.834;2023-08-07T04:51:08;17.90;99.90
75824;DHT22;64457;51.976;9.834;2023-08-07T04:53:36;17.30;99.90
75824;DHT22;64457;51.976;9.834;2023-08-07T04:56:03;17.20;99.90
75824;DHT22;64457;51.976;9.834;2023-08-07T04:58:32;17.50;99.90
75824;DHT22;64457;51.976;9.834;2023-08-07T05:01:00;17.60;99.90
75824;DHT22;64457;51.976;9.834;2023-08-07T05:03:28;17.90;99.90
75824;DHT22;64457;51.976;9.834;2023-08-07T05:06:02;18.10;99.90
75824;DHT22;64457;51.976;9.834;2023-08-07T05:08:30;18.00;99.90
75824;DHT22;64457;51.976;9.834;2023-08-07T05:10:58;17.90;99.90
75824;DHT22;64457;51.976;9.834;2023-08-07T05:13:27;17.90;99.90
75824;DHT22;64457;51.976;9.834;2023-08-07T05:15:56;17.70;99.90
75824;DHT22;64457;51.976;9.834;2023-08-07T05:18:24;17.50;99.90
75824;DHT22;64457;51.976;9.834;2023-08-07T05:20:53;17.80;99.90
75824;DHT22;64457;51.976;9.834;2023-08-07T05:23:21;18.00;99.90
75824;DHT22;64457;51.976;9.834;2023-08-07T05:25:49;18.00;99.90
75824;DHT22;64457;51.976;9.834;2023-08-07T05:28:16;18.20;99.90
75824;DHT22;64457;51.976;9.834;2023-08-07T05:30:44;18.40;99.90
75824;DHT22;64457;51.976;9.834;2023-08-07T05:33:11;18.70;99.90
75824;DHT22;64457;51.976;9.834;2023-08-07T05:35:41;18.80;99.90
75824;DHT22;64457;51.976;9.834;2023-08-07T05:38:11;19.00;99.90
75824;DHT22;64457;51.976;9.834;2023-08-07T05:40:38;19.00;99.90
75824;DHT22;64457;51.976;9.834;2023-08-07T05:43:09;18.90;99.90
75824;DHT22;64457;51.976;9.834;2023-08-07T05:45:37;19.00;99.90
75824;DHT22;64457;51.976;9.834;2023-08-07T05:48:05;18.90;99.90
75824;DHT22;64457;51.976;9.834;2023-08-07T05:50:35;19.10;99.90
75824;DHT22;64457;51.976;9.834;2023-08-07T05:53:02;19.20;99.90
75824;DHT22;64457;51.976;9.834;2023-08-07T05:55:32;19.30;99.90
75824;DHT22;64457;51.976;9.834;2023-08-07T05:58:00;19.50;99.90
75824;DHT22;64457;51.976;9.834;2023-08-07T06:00:28;19.50;99.90
75824;DHT22;64457;51.976;9.834;2023-08-07T06:02:56;19.50;99.90
75824;DHT22;64457;51.976;9.834;2023-08-07T06:05:25;19.20;99.90
75824;DHT22;64457;51.976;9.834;2023-08-07T06:07:52;19.00;99.90
75824;DHT22;64457;51.976;9.834;2023-08-07T06:10:20;19.10;99.90
75824;DHT22;64457;51.976;9.834;2023-08-07T06:12:50;19.20;99.90
75824;DHT22;64457;51.976;9.834;2023-08-07T06:15:18;19.10;99.90
75824;DHT22;64457;51.976;9.834;2023-08-07T06:17:48;18.90;99.90
75824;DHT22;64457;51.976;9.834;2023-08-07T06:20:17;18.80;99.90
75824;DHT22;64457;51.976;9.834;2023-08-07T06:22:46;18.90;99.90
75824;DHT22;64457;51.976;9.834;2023-08-07T06:25:14;19.00;99.90
75824;DHT22;64457;51.976;9.834;2023-08-07T06:27:41;18.70;99.90
75824;DHT22;64457;51.976;9.834;2023-08-07T06:30:13;18.60;99.90
75824;DHT22;64457;51.976;9.834;2023-08-07T06:32:47;18.60;99.90
75824;DHT22;64457;51.976;9.834;2023-08-07T06:35:15;18.70;99.90
75824;DHT22;64457;51.976;9.834;2023-08-07T06:37:43;18.90;99.90
75824;DHT22;64457;51.976;9.834;2023-08-07T06:40:12;19.10;99.90
75824;DHT22;64457;51.976;9.834;2023-08-07T06:42:40;19.10;99.90
75824;DHT22;64457;51.976;9.834;2023-08-07T06:45:09;19.00;99.90
75824;DHT22;64457;51.976;9.834;2023-08-07T06:47:40;19.10;99.90
75824;DHT22;64457;51.976;9.834;2023-08-07T06:50:13;18.80;99.90
75824;DHT22;64457;51.976;9.834;2023-08-07T06:52:41;18.90;99.90
75824;DHT22;64457;51.976;9.834;2023-08-07T06:55:09;18.90;99.90
75824;DHT22;64457;51.976;9.834;2023-08-07T06:57:37;19.00;99.90
75824;DHT22;64457;51.976;9.834;2023-08-07T07:00:06;19.20;99.90
75824;DHT22;64457;51.976;9.834;2023-08-07T07:02:39;19.30;99.90
75824;DHT22;64457;51.976;9.834;2023-08-07T07:05:07;19.50;99.90
75824;DHT22;64457;51.976;9.834;2023-08-07T07:07:37;19.50;99.90
75824;DHT22;64457;51.976;9.834;2023-08-07T07:10:07;19.50;99.90
75824;DHT22;64457;51.976;9.834;2023-08-07T07:12:36;19.40;99.90
75824;DHT22;64457;51.976;9.834;2023-08-07T07:15:06;19.30;99.90
75824;DHT22;64457;51.976;9.834;2023-08-07T07:17:34;19.60;99.90
75824;DHT22;64457;51.976;9.834;2023-08-07T07:20:07;19.70;99.90
75824;DHT22;64457;51.976;9.834;2023-08-07T07:22:35;20.00;99.90
75824;DHT22;64457;51.976;9.834;2023-08-07T07:25:03;20.10;99.90
75824;DHT22;64457;51.976;9.834;2023-08-07T07:27:32;19.90;99.90
75824;DHT22;64457;51.976;9.834;2023-08-07T07:30:02;20.10;99.90
75824;DHT22;64457;51.976;9.834;2023-08-07T07:32:31;20.20;99.90
75824;DHT22;64457;51.976;9.834;2023-08-07T07:34:59;20.50;99.90
75824;DHT22;64457;51.976;9.834;2023-08-07T07:37:30;20.50;99.90
75824;DHT22;64457;51.976;9.834;2023-08-07T07:39:57;20.70;99.90
75824;DHT22;64457;51.976;9.834;2023-08-07T07:42:25;21.10;99.90
75824;DHT22;64457;51.976;9.834;2023-08-07T07:44:53;21.30;99.90
75824;DHT22;64457;51.976;9.834;2023-08-07T07:47:20;21.10;99.90
75824;DHT22;64457;51.976;9.834;2023-08-07T07:50:04;20.20;99.90
75824;DHT22;64457;51.976;9.834;2023-08-07T07:52:36;19.80;99.90
75824;DHT22;64457;51.976;9.834;2023-08-07T07:55:04;19.60;99.90
75824;DHT22;64457;51.976;9.834;2023-08-07T07:57:34;19.70;99.90
75824;DHT22;64457;51.976;9.834;2023-08-07T08:00:02;19.20;99.90
75824;DHT22;64457;51.976;9.834;2023-08-07T08:02:37;19.00;99.90
75824;DHT22;64457;51.976;9.834;2023-08-07T08:05:05;19.30;99.90
75824;DHT22;64457;51.976;9.834;2023-08-07T08:07:35;19.10;99.90
75824;DHT22;64457;51.976;9.834;2023-08-07T08:10:06;19.30;99.90
75824;DHT22;64457;51.976;9.834;2023-08-07T08:12:35;19.80;99.90
75824;DHT22;64457;51.976;9.834;2023-08-07T08:15:03;20.20;99.90
75824;DHT22;64457;51.976;9.834;2023-08-07T08:17:34;20.20;99.90
75824;DHT22;64457;51.976;9.834;2023-08-07T08:20:02;19.80;99.90
75824;DHT22;64457;51.976;9.834;2023-08-07T08:22:31;19.50;99.90
75824;DHT22;64457;51.976;9.834;2023-08-07T08:25:00;19.10;99.90
75824;DHT22;64457;51.976;9.834;2023-08-07T08:27:30;19.10;99.90
75824;DHT22;64457;51.976;9.834;2023-08-07T08:29:58;19.20;99.90
75824;DHT22;64457;51.976;9.834;2023-08-07T08:32:27;19.30;99.90
75824;DHT22;64457;51.976;9.834;2023-08-07T08:34:55;19.00;99.90
75824;DHT22;64457;51.976;9.834;2023-08-07T08:37:23;18.90;99.90
75824;DHT22;64457;51.976;9.834;2023-08-07T08:39:51;19.00;99.90
75824;DHT22;64457;51.976;9.834;2023-08-07T08:42:20;18.90;99.90
75824;DHT22;64457;51.976;9.834;2023-08-07T08:44:51;18.90;99.90
75824;DHT22;64457;51.976;9.834;2023-08-07T08:47:21;19.30;99.90
75824;DHT22;64457;51.976;9.834;2023-08-07T08:49:51;19.30;99.90
75824;DHT22;64457;51.976;9.834;2023-08-07T08:52:23;19.20;99.90
75824;DHT22;64457;51.976;9.834;2023-08-07T08:54:50;18.80;99.90
75824;DHT22;64457;51.976;9.834;2023-08-07T08:57:22;18.90;99.90
75824;DHT22;64457;51.976;9.834;2023-08-07T08:59:51;19.20;99.90
75824;DHT22;64457;51.976;9.834;2023-08-07T09:02:18;19.60;99.90
75824;DHT22;64457;51.976;9.834;2023-08-07T09:04:46;20.00;99.90
75824;DHT22;64457;51.976;9.834;2023-08-07T09:07:16;20.30;99.90
75824;DHT22;64457;51.976;9.834;2023-08-07T09:09:44;20.50;99.90
75824;DHT22;64457;51.976;9.834;2023-08-07T09:12:15;20.60;99.90
75824;DHT22;64457;51.976;9.834;2023-08-07T09:14:48;20.80;99.90
75824;DHT22;64457;51.976;9.834;2023-08-07T09:17:17;21.20;99.90
75824;DHT22;64457;51.976;9.834;2023-08-07T09:19:45;20.30;99.90
75824;DHT22;64457;51.976;9.834;2023-08-07T09:22:13;20.10;99.90
75824;DHT22;64457;51.976;9.834;2023-08-07T09:24:41;20.20;99.90
75824;DHT22;64457;51.976;9.834;2023-08-07T09:27:08;20.10;99.90
75824;DHT22;64457;51.976;9.834;2023-08-07T09:29:36;19.70;99.90
75824;DHT22;64457;51.976;9.834;2023-08-07T09:32:09;19.40;99.90
75824;DHT22;64457;51.976;9.834;2023-08-07T09:34:41;19.50;99.90
75824;DHT22;64457;51.976;9.834;2023-08-07T09:37:09;19.40;99.90
75824;DHT22;64457;51.976;9.834;2023-08-07T09:39:37;19.60;99.90
75824;DHT22;64457;51.976;9.834;2023-08-07T09:42:08;20.00;99.90
75824;DHT22;64457;51.976;9.834;2023-08-07T09:44:41;19.90;99.90
75824;DHT22;64457;51.976;9.834;2023-08-07T09:47:14;19.70;99.90
75824;DHT22;64457;51.976;9.834;2023-08-07T09:49:42;19.60;99.90
75824;DHT22;64457;51.976;9.834;2023-08-07T09:52:13;19.70;99.90
75824;DHT22;64457;51.976;9.834;2023-08-07T09:54:41;19.80;99.90
75824;DHT22;64457;51.976;9.834;2023-08-07T09:57:09;19.50;99.90
75824;DHT22;64457;51.976;9.834;2023-08-07T09:59:37;19.50;99.90
75824;DHT22;64457;51.976;9.834;2023-08-07T10:02:05;19.70;99.90
75824;DHT22;64457;51.976;9.834;2023-08-07T10:04:36;19.90;99.90
75824;DHT22;64457;51.976;9.834;2023-08-07T10:07:04;20.10;99.90
75824;DHT22;64457;51.976;9.834;2023-08-07T10:09:36;20.30;99.90
75824;DHT22;64457;51.976;9.834;2023-08-07T10:12:07;20.60;99.90
75824;DHT22;64457;51.976;9.834;2023-08-07T10:14:35;20.80;99.90
75824;DHT22;64457;51.976;9.834;2023-08-07T10:17:03;21.20;99.90
75824;DHT22;64457;51.976;9.834;2023-08-07T10:19:31;21.60;99.90
75824;DHT22;64457;51.976;9.834;2023-08-07T10:22:02;21.90;99.90
75824;DHT22;64457;51.976;9.834;2023-08-07T10:24:31;22.10;99.10
75824;DHT22;64457;51.976;9.834;2023-08-07T10:26:59;21.60;99.90
75824;DHT22;64457;51.976;9.834;2023-08-07T10:29:28;21.80;99.50
75824;DHT22;64457;51.976;9.834;2023-08-07T10:31:58;22.00;99.10
75824;DHT22;64457;51.976;9.834;2023-08-07T10:34:29;22.20;98.80
75824;DHT22;64457;51.976;9.834;2023-08-07T10:36:57;22.40;98.40
75824;DHT22;64457;51.976;9.834;2023-08-07T10:39:27;22.30;97.90
75824;DHT22;64457;51.976;9.834;2023-08-07T10:41:55;21.90;98.70
75824;DHT22;64457;51.976;9.834;2023-08-07T10:44:24;21.50;99.70
75824;DHT22;64457;51.976;9.834;2023-08-07T10:46:55;20.50;99.90
75824;DHT22;64457;51.976;9.834;2023-08-07T10:49:31;20.30;99.90
75824;DHT22;64457;51.976;9.834;2023-08-07T10:52:04;20.30;99.90
75824;DHT22;64457;51.976;9.834;2023-08-07T10:54:40;20.20;99.90
75824;DHT22;64457;51.976;9.834;2023-08-07T10:57:12;20.30;99.90
75824;DHT22;64457;51.976;9.834;2023-08-07T10:59:49;20.40;99.90
75824;DHT22;64457;51.976;9.834;2023-08-07T11:02:23;20.40;99.90
75824;DHT22;64457;51.976;9.834;2023-08-07T11:04:53;20.90;99.90
75824;DHT22;64457;51.976;9.834;2023-08-07T11:07:26;21.20;99.90
75824;DHT22;64457;51.976;9.834;2023-08-07T11:09:59;21.50;99.90
75824;DHT22;64457;51.976;9.834;2023-08-07T11:12:28;21.70;99.90
75824;DHT22;64457;51.976;9.834;2023-08-07T11:14:57;21.50;99.90
75824;DHT22;64457;51.976;9.834;2023-08-07T11:17:25;20.90;99.90
75824;DHT22;64457;51.976;9.834;2023-08-07T11:19:53;20.60;99.90
75824;DHT22;64457;51.976;9.834;2023-08-07T11:22:21;20.30;99.90
75824;DHT22;64457;51.976;9.834;2023-08-07T11:24:50;20.20;99.90
75824;DHT22;64457;51.976;9.834;2023-08-07T11:27:21;20.40;99.90
75824;DHT22;64457;51.976;9.834;2023-08-07T11:29:50;20.60;99.90
75824;DHT22;64457;51.976;9.834;2023-08-07T11:32:21;20.50;99.90
75824;DHT22;64457;51.976;9.834;2023-08-07T11:34:49;20.40;99.90
75824;DHT22;64457;51.976;9.834;2023-08-07T11:37:19;19.90;99.90
75824;DHT22;64457;51.976;9.834;2023-08-07T11:39:48;19.70;99.90
75824;DHT22;64457;51.976;9.834;2023-08-07T11:42:17;19.30;99.90
75824;DHT22;64457;51.976;9.834;2023-08-07T11:44:46;19.50;99.90
75824;DHT22;64457;51.976;9.834;2023-08-07T11:47:15;19.80;99.90
75824;DHT22;64457;51.976;9.834;2023-08-07T11:49:43;20.40;99.90
75824;DHT22;64457;51.976;9.834;2023-08-07T11:52:12;20.90;99.90
75824;DHT22;64457;51.976;9.834;2023-08-07T11:54:39;21.20;99.90
75824;DHT22;64457;51.976;9.834;2023-08-07T11:57:15;21.40;99.70
75824;DHT22;64457;51.976;9.834;2023-08-07T11:59:47;21.50;99.00
75824;DHT22;64457;51.976;9.834;2023-08-07T12:02:16;21.60;99.10
75824;DHT22;64457;51.976;9.834;2023-08-07T12:04:49;22.10;99.40
75824;DHT22;64457;51.976;9.834;2023-08-07T12:07:17;22.20;98.10
75824;DHT22;64457;51.976;9.834;2023-08-07T12:09:47;22.20;96.80
75824;DHT22;64457;51.976;9.834;2023-08-07T12:12:14;21.80;97.20
75824;DHT22;64457;51.976;9.834;2023-08-07T12:14:42;21.90;97.60
75824;DHT22;64457;51.976;9.834;2023-08-07T12:17:11;22.00;97.30
75824;DHT22;64457;51.976;9.834;2023-08-07T12:19:39;21.50;97.20
75824;DHT22;64457;51.976;9.834;2023-08-07T12:22:12;20.40;97.90
75824;DHT22;64457;51.976;9.834;2023-08-07T12:24:41;20.10;99.90
75824;DHT22;64457;51.976;9.834;2023-08-07T12:27:09;20.20;99.90
75824;DHT22;64457;51.976;9.834;2023-08-07T12:29:37;20.50;99.80
75824;DHT22;64457;51.976;9.834;2023-08-07T12:32:06;20.70;99.90
75824;DHT22;64457;51.976;9.834;2023-08-07T12:34:37;21.00;99.90
75824;DHT22;64457;51.976;9.834;2023-08-07T12:37:05;21.50;98.80
75824;DHT22;64457;51.976;9.834;2023-08-07T12:39:33;21.90;97.60
75824;DHT22;64457;51.976;9.834;2023-08-07T12:42:01;21.90;95.30
75824;DHT22;64457;51.976;9.834;2023-08-07T12:44:29;21.70;96.10
75824;DHT22;64457;51.976;9.834;2023-08-07T12:46:57;21.60;95.60
75824;DHT22;64457;51.976;9.834;2023-08-07T12:49:25;21.80;96.20
75824;DHT22;64457;51.976;9.834;2023-08-07T12:51:55;22.00;94.50
75824;DHT22;64457;51.976;9.834;2023-08-07T12:54:25;22.40;94.90
75824;DHT22;64457;51.976;9.834;2023-08-07T12:56:55;22.40;93.10
75824;DHT22;64457;51.976;9.834;2023-08-07T12:59:23;22.50;93.40
75824;DHT22;64457;51.976;9.834;2023-08-07T13:01:53;22.40;92.90
75824;DHT22;64457;51.976;9.834;2023-08-07T13:04:22;22.30;93.10
75824;DHT22;64457;51.976;9.834;2023-08-07T13:06:52;22.60;92.90
75824;DHT22;64457;51.976;9.834;2023-08-07T13:09:20;22.30;92.40
75824;DHT22;64457;51.976;9.834;2023-08-07T13:11:48;22.40;92.10
75824;DHT22;64457;51.976;9.834;2023-08-07T13:14:16;22.90;92.00
75824;DHT22;64457;51.976;9.834;2023-08-07T13:16:43;23.00;91.70
75824;DHT22;64457;51.976;9.834;2023-08-07T13:19:12;22.60;92.40
75824;DHT22;64457;51.976;9.834;2023-08-07T13:21:39;21.60;92.90
75824;DHT22;64457;51.976;9.834;2023-08-07T13:24:08;21.30;93.40
75824;DHT22;64457;51.976;9.834;2023-08-07T13:26:36;21.00;93.80
75824;DHT22;64457;51.976;9.834;2023-08-07T13:29:04;21.20;94.90
75824;DHT22;64457;51.976;9.834;2023-08-07T13:31:32;21.50;92.50
75824;DHT22;64457;51.976;9.834;2023-08-07T13:33:59;21.50;93.20
75824;DHT22;64457;51.976;9.834;2023-08-07T13:36:32;21.60;92.70
75824;DHT22;64457;51.976;9.834;2023-08-07T13:39:00;21.50;92.10
75824;DHT22;64457;51.976;9.834;2023-08-07T13:41:29;21.40;93.10
75824;DHT22;64457;51.976;9.834;2023-08-07T13:43:57;21.90;92.70
75824;DHT22;64457;51.976;9.834;2023-08-07T13:46:26;22.00;90.20
75824;DHT22;64457;51.976;9.834;2023-08-07T13:48:53;21.50;90.70
75824;DHT22;64457;51.976;9.834;2023-08-07T13:51:21;21.40;90.00
75824;DHT22;64457;51.976;9.834;2023-08-07T13:53:50;21.10;91.20
75824;DHT22;64457;51.976;9.834;2023-08-07T13:56:19;21.10;90.80
75824;DHT22;64457;51.976;9.834;2023-08-07T13:58:50;21.30;91.40
75824;DHT22;64457;51.976;9.834;2023-08-07T14:01:19;21.40;90.90
75824;DHT22;64457;51.976;9.834;2023-08-07T14:03:47;21.70;90.70
75824;DHT22;64457;51.976;9.834;2023-08-07T14:06:15;21.80;90.00
75824;DHT22;64457;51.976;9.834;2023-08-07T14:08:43;21.80;90.10
75824;DHT22;64457;51.976;9.834;2023-08-07T14:11:10;21.90;90.00
75824;DHT22;64457;51.976;9.834;2023-08-07T14:13:40;21.80;90.30
75824;DHT22;64457;51.976;9.834;2023-08-07T14:16:10;21.90;90.50
75824;DHT22;64457;51.976;9.834;2023-08-07T14:18:38;21.70;90.00
75824;DHT22;64457;51.976;9.834;2023-08-07T14:21:06;21.60;90.50
75824;DHT22;64457;51.976;9.834;2023-08-07T14:23:34;21.90;89.50
75824;DHT22;64457;51.976;9.834;2023-08-07T14:26:03;22.00;87.30
75824;DHT22;64457;51.976;9.834;2023-08-07T14:28:31;21.80;87.00
75824;DHT22;64457;51.976;9.834;2023-08-07T14:31:05;21.60;89.00
75824;DHT22;64457;51.976;9.834;2023-08-07T14:33:35;21.70;90.20
75824;DHT22;64457;51.976;9.834;2023-08-07T14:36:03;22.20;88.30
75824;DHT22;64457;51.976;9.834;2023-08-07T14:38:33;22.50;88.00
75824;DHT22;64457;51.976;9.834;2023-08-07T14:41:01;22.60;87.20
75824;DHT22;64457;51.976;9.834;2023-08-07T14:43:29;22.10;85.00
75824;DHT22;64457;51.976;9.834;2023-08-07T14:46:02;21.60;85.80
75824;DHT22;64457;51.976;9.834;2023-08-07T14:48:29;21.40;86.60
75824;DHT22;64457;51.976;9.834;2023-08-07T14:50:59;21.40;85.90
75824;DHT22;64457;51.976;9.834;2023-08-07T14:53:30;21.30;84.80
75824;DHT22;64457;51.976;9.834;2023-08-07T14:55:58;21.50;85.70
75824;DHT22;64457;51.976;9.834;2023-08-07T14:58:26;21.30;86.30
75824;DHT22;64457;51.976;9.834;2023-08-07T15:00:55;21.10;85.10
75824;DHT22;64457;51.976;9.834;2023-08-07T15:03:23;20.80;85.20
75824;DHT22;64457;51.976;9.834;2023-08-07T15:05:51;20.50;85.50
75824;DHT22;64457;51.976;9.834;2023-08-07T15:08:21;20.20;85.00
75824;DHT22;64457;51.976;9.834;2023-08-07T15:10:51;20.10;87.40
75824;DHT22;64457;51.976;9.834;2023-08-07T15:13:20;20.20;87.10
75824;DHT22;64457;51.976;9.834;2023-08-07T15:15:47;20.60;88.80
75824;DHT22;64457;51.976;9.834;2023-08-07T15:18:17;20.70;89.20
75824;DHT22;64457;51.976;9.834;2023-08-07T15:20:47;20.90;87.50
75824;DHT22;64457;51.976;9.834;2023-08-07T15:23:15;21.20;86.90
75824;DHT22;64457;51.976;9.834;2023-08-07T15:25:44;21.10;86.10
75824;DHT22;64457;51.976;9.834;2023-08-07T15:28:12;20.80;84.90
75824;DHT22;64457;51.976;9.834;2023-08-07T15:30:39;20.80;87.20
75824;DHT22;64457;51.976;9.834;2023-08-07T15:33:14;20.60;87.20
75824;DHT22;64457;51.976;9.834;2023-08-07T15:35:41;21.00;87.30
75824;DHT22;64457;51.976;9.834;2023-08-07T15:38:10;21.20;84.60
75824;DHT22;64457;51.976;9.834;2023-08-07T15:40:38;21.20;81.90